createdAt,value
2017-06-03T00:00:59.923Z,7.90
2017-06-03T00:03:33.824Z,7.95
2017-06-03T00:06:07.829Z,7.80
2017-06-03T00:08:42.021Z,9.13
2017-06-03T00:11:16.032Z,7.57
2017-06-03T00:13:50.069Z,7.87
2017-06-03T00:16:21.252Z,6.60
2017-06-03T00:18:55.129Z,7.57
2017-06-03T00:21:29.448Z,8.15
2017-06-03T00:24:11.688Z,8.80
2017-06-03T00:26:48.852Z,8.68
2017-06-03T00:29:20.209Z,7.95
2017-06-03T00:31:51.012Z,7.20
2017-06-03T00:34:22.131Z,8.75
2017-06-03T00:36:57.690Z,7.20
2017-06-03T00:39:29.037Z,9.48
2017-06-03T00:42:02.657Z,7.65
2017-06-03T00:44:36.718Z,8.02
2017-06-03T00:47:10.644Z,7.93
2017-06-03T00:49:46.434Z,6.55
2017-06-03T00:52:20.284Z,8.00
2017-06-03T00:54:54.429Z,7.03
2017-06-03T00:57:28.528Z,8.55
2017-06-03T01:00:02.480Z,7.47
2017-06-03T01:02:30.035Z,7.70
2017-06-03T01:04:57.611Z,7.32
2017-06-03T01:07:25.167Z,7.50
2017-06-03T01:09:52.731Z,8.75
2017-06-03T01:12:20.299Z,7.90
2017-06-03T01:14:47.853Z,7.50
2017-06-03T01:17:15.432Z,9.55
2017-06-03T01:19:42.995Z,6.95
2017-06-03T01:22:10.592Z,8.30
2017-06-03T01:24:38.916Z,7.87
2017-06-03T01:27:06.492Z,7.72
2017-06-03T01:29:34.060Z,10.57
2017-06-03T01:32:01.705Z,9.25
2017-06-03T01:34:29.271Z,10.10
2017-06-03T01:36:56.847Z,8.25
2017-06-03T01:39:24.413Z,9.95
2017-06-03T01:41:51.987Z,9.25
2017-06-03T01:44:20.312Z,9.38
2017-06-03T01:46:47.887Z,8.90
2017-06-03T01:49:15.439Z,8.63
2017-06-03T01:51:43.020Z,8.65
2017-06-03T01:54:10.576Z,8.65
2017-06-03T01:56:38.155Z,8.50
2017-06-03T01:59:05.742Z,7.68
2017-06-03T02:01:33.305Z,7.43
2017-06-03T02:04:00.883Z,9.77
2017-06-03T02:06:28.443Z,9.57
2017-06-03T02:08:56.016Z,7.72
2017-06-03T02:11:23.596Z,10.40
2017-06-03T02:13:51.163Z,8.73
2017-06-03T02:16:18.714Z,8.45
2017-06-03T02:18:46.293Z,8.20
2017-06-03T02:21:13.856Z,7.53
2017-06-03T02:23:41.435Z,8.13
2017-06-03T02:26:08.995Z,8.00
2017-06-03T02:28:37.364Z,8.13
2017-06-03T02:31:05.903Z,8.10
2017-06-03T02:33:33.467Z,7.68
2017-06-03T02:36:01.043Z,8.93
2017-06-03T02:38:28.599Z,8.18
2017-06-03T02:40:56.175Z,9.00
2017-06-03T02:43:23.745Z,8.73
2017-06-03T02:45:51.328Z,8.15
2017-06-03T02:48:18.893Z,8.95
2017-06-03T02:50:46.473Z,9.98
2017-06-03T02:53:14.039Z,9.90
2017-06-03T02:55:41.607Z,7.55
2017-06-03T02:58:09.167Z,9.13
2017-06-03T03:00:36.741Z,7.80
2017-06-03T03:03:04.309Z,7.62
2017-06-03T03:05:31.917Z,9.60
2017-06-03T03:07:59.467Z,7.53
2017-06-03T03:10:27.036Z,10.40
2017-06-03T03:12:54.621Z,9.65
2017-06-03T03:15:22.183Z,8.70
2017-06-03T03:17:49.776Z,8.73
2017-06-03T03:20:17.337Z,8.00
2017-06-03T03:22:44.916Z,8.57
2017-06-03T03:25:13.256Z,10.25
2017-06-03T03:27:40.835Z,7.97
2017-06-03T03:30:08.416Z,8.57
2017-06-03T03:32:36.764Z,9.70
2017-06-03T03:35:04.330Z,9.82
2017-06-03T03:37:31.909Z,9.35
2017-06-03T03:39:59.517Z,8.05
2017-06-03T03:42:27.099Z,8.95
2017-06-03T03:44:54.725Z,8.65
2017-06-03T03:47:22.311Z,10.90
2017-06-03T03:49:49.871Z,9.48
2017-06-03T03:52:17.468Z,10.40
2017-06-03T03:54:45.058Z,10.15
2017-06-03T03:57:12.671Z,11.70
2017-06-03T03:59:40.267Z,9.40
2017-06-03T04:02:08.611Z,10.18
2017-06-03T04:04:36.207Z,9.07
2017-06-03T04:07:04.771Z,10.77
2017-06-03T04:09:32.361Z,11.25
2017-06-03T04:11:59.928Z,8.50
2017-06-03T04:14:27.544Z,8.57
2017-06-03T04:16:55.239Z,9.05
2017-06-03T04:19:23.590Z,9.90
2017-06-03T04:21:51.158Z,9.43
2017-06-03T04:24:18.735Z,8.20
2017-06-03T04:26:47.059Z,8.80
2017-06-03T04:29:14.647Z,8.82
2017-06-03T04:31:50.151Z,11.25
2017-06-03T04:34:36.979Z,10.40
2017-06-03T04:37:10.894Z,8.43
2017-06-03T04:39:44.715Z,9.45
2017-06-03T04:42:18.451Z,7.68
2017-06-03T04:44:53.179Z,9.23
2017-06-03T04:47:24.330Z,9.60
2017-06-03T04:50:01.725Z,7.43
2017-06-03T04:52:35.540Z,8.65
2017-06-03T04:55:13.335Z,8.65
2017-06-03T04:57:45.236Z,7.60
2017-06-03T05:00:29.344Z,8.25
2017-06-03T05:03:16.382Z,7.95
2017-06-03T05:05:49.908Z,7.28
2017-06-03T05:11:20.435Z,8.05
2017-06-03T05:14:05.088Z,8.23
2017-06-03T05:16:55.846Z,8.13
2017-06-03T05:19:23.407Z,7.20
2017-06-03T05:21:50.991Z,7.50
2017-06-03T05:24:19.311Z,8.45
2017-06-03T05:26:54.419Z,8.60
2017-06-03T05:29:43.561Z,8.02
2017-06-03T05:32:30.405Z,9.60
2017-06-03T05:35:07.888Z,8.32
2017-06-03T05:37:41.120Z,8.38
2017-06-03T05:40:27.546Z,9.07
2017-06-03T05:43:07.882Z,13.55
2017-06-03T05:45:44.506Z,9.45
2017-06-03T05:48:29.436Z,6.05
2017-06-03T05:51:14.775Z,7.80
2017-06-03T05:53:59.175Z,6.80
2017-06-03T05:56:44.118Z,8.15
2017-06-03T06:02:24.237Z,9.77
2017-06-03T06:05:09.545Z,8.13
2017-06-03T06:07:54.829Z,8.45
2017-06-03T06:10:39.682Z,8.68
2017-06-03T06:13:20.744Z,8.65
2017-06-03T06:18:52.344Z,9.30
2017-06-03T06:21:27.423Z,9.15
2017-06-03T06:24:12.887Z,9.40
2017-06-03T06:27:03.200Z,7.75
2017-06-03T06:29:35.094Z,7.93
2017-06-03T06:32:12.931Z,6.82
2017-06-03T06:34:47.140Z,8.27
2017-06-03T06:37:34.009Z,7.90
2017-06-03T06:40:04.250Z,8.27
2017-06-03T06:42:38.315Z,7.75
2017-06-03T06:48:04.934Z,7.60
2017-06-03T06:53:42.753Z,7.07
2017-06-03T06:56:27.502Z,6.50
2017-06-03T06:59:14.029Z,8.05
2017-06-03T07:01:47.649Z,7.18
2017-06-03T07:04:32.478Z,8.00
2017-06-03T07:07:16.502Z,8.20
2017-06-03T07:12:56.439Z,7.93
2017-06-03T07:15:40.895Z,7.40
2017-06-03T07:18:25.663Z,6.73
2017-06-03T07:21:09.933Z,7.15
2017-06-03T07:23:54.799Z,7.65
2017-06-03T07:26:37.470Z,9.38
2017-06-03T07:29:20.497Z,8.33
2017-06-03T07:31:56.600Z,7.40
2017-06-03T07:34:30.706Z,6.50
2017-06-03T07:37:04.527Z,6.67
2017-06-03T07:39:37.747Z,7.77
2017-06-03T07:42:11.804Z,6.87
2017-06-03T07:47:38.827Z,5.57
2017-06-03T07:50:16.991Z,6.97
2017-06-03T07:52:44.580Z,6.17
2017-06-03T07:58:13.572Z,7.00
2017-06-03T08:00:42.016Z,6.13
2017-06-03T08:03:23.148Z,6.87
2017-06-03T08:05:54.714Z,6.93
2017-06-03T08:11:19.858Z,5.90
2017-06-03T08:14:01.153Z,6.90
2017-06-03T08:19:22.588Z,6.33
2017-06-03T08:21:51.785Z,6.43
2017-06-03T08:24:26.898Z,7.03
2017-06-03T08:26:55.346Z,6.90
2017-06-03T08:29:23.795Z,6.57
2017-06-03T08:31:52.244Z,5.20
2017-06-03T08:34:20.735Z,5.43
2017-06-03T08:36:50.829Z,5.67
2017-06-03T08:42:12.272Z,6.00
2017-06-03T08:44:55.341Z,6.50
2017-06-03T08:47:23.795Z,7.23
2017-06-03T08:49:53.073Z,6.70
2017-06-03T08:52:21.520Z,6.80
2017-06-03T08:54:49.935Z,6.73
2017-06-03T08:57:18.379Z,5.50
2017-06-03T08:59:47.305Z,6.57
2017-06-03T09:02:15.745Z,5.70
2017-06-03T09:04:44.180Z,7.17
2017-06-03T09:07:12.714Z,6.60
2017-06-03T09:09:41.256Z,7.57
2017-06-03T09:12:09.700Z,6.50
2017-06-03T09:14:38.140Z,5.47
2017-06-03T09:17:07.364Z,4.97
2017-06-03T09:19:35.807Z,5.30
2017-06-03T09:22:05.035Z,5.60
2017-06-03T09:24:33.487Z,6.10
2017-06-03T09:27:02.691Z,5.13
2017-06-03T09:29:31.907Z,5.63
2017-06-03T09:32:00.341Z,5.20
2017-06-03T09:34:34.221Z,6.00
2017-06-03T09:37:08.196Z,5.00
2017-06-03T09:39:44.890Z,4.97
2017-06-03T09:42:32.100Z,5.40
2017-06-03T09:47:55.075Z,8.37
2017-06-03T09:50:29.829Z,6.20
2017-06-03T09:53:16.601Z,5.27
2017-06-03T09:56:08.082Z,5.47
2017-06-03T09:58:55.519Z,5.30
2017-06-03T10:01:30.323Z,5.27
2017-06-03T10:04:04.467Z,5.67
2017-06-03T10:09:38.884Z,4.60
2017-06-03T10:12:07.337Z,5.23
2017-06-03T10:14:51.713Z,5.70
2017-06-03T10:17:34.171Z,5.13
2017-06-03T10:20:16.715Z,5.40
2017-06-03T10:23:08.902Z,4.85
2017-06-03T10:28:49.386Z,5.55
2017-06-03T10:31:30.276Z,5.30
2017-06-03T10:34:17.550Z,5.47
2017-06-03T10:40:01.771Z,4.75
2017-06-03T10:45:36.453Z,5.85
2017-06-03T10:48:04.970Z,4.90
2017-06-03T10:50:43.152Z,6.33
2017-06-03T10:53:27.448Z,6.80
2017-06-03T10:58:56.438Z,7.50
2017-06-03T11:01:28.715Z,6.23
2017-06-03T11:06:56.360Z,8.00
2017-06-03T11:09:43.565Z,7.07
2017-06-03T11:12:17.494Z,6.63
2017-06-03T11:14:46.208Z,7.55
2017-06-03T11:17:21.445Z,7.40
2017-06-03T11:19:53.780Z,7.05
2017-06-03T11:25:16.356Z,6.50
2017-06-03T11:27:50.574Z,6.60
2017-06-03T11:30:23.102Z,6.97
2017-06-03T11:35:44.812Z,6.43
2017-06-03T11:38:13.511Z,6.80
2017-06-03T11:45:03.071Z,6.70
2017-06-03T11:47:32.059Z,5.65
2017-06-03T11:50:05.807Z,6.05
2017-06-03T11:52:37.194Z,5.60
2017-06-03T11:55:11.033Z,6.20
2017-06-03T11:57:42.105Z,5.60
2017-06-03T12:00:15.943Z,5.40
2017-06-03T12:02:45.040Z,6.20
2017-06-03T12:05:18.596Z,6.10
2017-06-03T12:10:44.548Z,5.90
2017-06-03T12:13:25.288Z,5.00
2017-06-03T12:15:58.547Z,5.30
2017-06-03T12:18:32.464Z,5.20
2017-06-03T12:21:03.931Z,5.73
2017-06-03T12:23:38.009Z,5.30
2017-06-03T12:26:10.142Z,5.60
2017-06-03T12:28:43.538Z,5.70
2017-06-03T12:31:17.494Z,4.83
2017-06-03T12:36:39.521Z,4.80
2017-06-03T12:42:00.312Z,4.32
2017-06-03T12:44:27.884Z,4.90
2017-06-03T12:46:55.528Z,4.10
2017-06-03T12:49:23.065Z,4.73
2017-06-03T12:51:50.609Z,3.90
2017-06-03T12:54:18.216Z,3.77
2017-06-03T12:56:45.751Z,4.80
2017-06-03T12:59:13.390Z,4.60
2017-06-03T13:01:40.939Z,4.40
2017-06-03T13:04:08.511Z,4.37
2017-06-03T13:06:39.910Z,5.23
2017-06-03T13:09:13.674Z,4.50
2017-06-03T13:11:47.714Z,4.40
2017-06-03T13:14:21.349Z,4.00
2017-06-03T13:16:48.900Z,3.40
2017-06-03T13:19:16.466Z,3.83
2017-06-03T13:21:50.260Z,4.03
2017-06-03T13:24:17.820Z,3.90
2017-06-03T13:26:51.636Z,4.60
2017-06-03T13:29:38.759Z,3.60
2017-06-03T13:32:12.511Z,4.07
2017-06-03T13:37:39.188Z,4.00
2017-06-03T13:40:14.051Z,4.17
2017-06-03T13:42:58.680Z,3.93
2017-06-03T13:45:33.032Z,4.00
2017-06-03T13:48:17.681Z,4.07
2017-06-03T13:51:01.692Z,3.23
2017-06-03T13:53:45.752Z,3.93
2017-06-03T13:56:29.847Z,4.63
2017-06-03T13:59:19.264Z,4.37
2017-06-03T14:01:56.757Z,4.57
2017-06-03T14:04:41.512Z,5.27
2017-06-03T14:07:34.199Z,5.37
2017-06-03T14:10:18.244Z,5.20
2017-06-03T14:13:02.081Z,5.27
2017-06-03T14:15:46.235Z,4.30
2017-06-03T14:18:32.736Z,5.10
2017-06-03T14:21:17.252Z,4.73
2017-06-03T14:24:03.611Z,5.13
2017-06-03T14:26:47.964Z,5.30
2017-06-03T14:29:32.401Z,5.90
2017-06-03T14:32:18.795Z,4.77
2017-06-03T14:37:54.054Z,5.10
2017-06-03T14:43:30.940Z,5.50
2017-06-03T14:46:10.965Z,5.03
2017-06-03T14:48:44.921Z,4.30
2017-06-03T14:51:19.005Z,5.73
2017-06-03T14:53:52.215Z,4.80
2017-06-03T14:56:26.456Z,4.57
2017-06-03T14:58:59.988Z,5.17
2017-06-03T15:04:09.468Z,5.77
2017-06-03T15:06:42.874Z,4.90
2017-06-03T15:09:11.346Z,5.27
2017-06-03T15:11:38.879Z,6.30
2017-06-03T15:14:12.192Z,5.77
2017-06-03T15:16:47.330Z,5.10
2017-06-03T15:19:35.033Z,4.87
2017-06-03T15:22:09.756Z,5.70
2017-06-03T15:24:45.848Z,5.23
2017-06-03T15:30:06.288Z,5.33
2017-06-03T15:32:40.725Z,5.70
2017-06-03T15:35:25.384Z,5.40
2017-06-03T15:38:12.018Z,4.43
2017-06-03T15:40:56.642Z,5.57
2017-06-03T15:43:40.661Z,6.10
2017-06-03T15:46:13.920Z,5.67
2017-06-03T15:48:48.728Z,5.67
2017-06-03T15:51:26.357Z,5.07
2017-06-03T15:54:09.015Z,4.85
2017-06-03T15:56:44.976Z,6.00
2017-06-03T15:59:28.838Z,5.10
2017-06-03T16:02:12.824Z,5.77
2017-06-03T16:04:59.230Z,5.53
2017-06-03T16:07:36.992Z,5.17
2017-06-03T16:13:13.750Z,4.65
2017-06-03T16:15:51.710Z,5.40
2017-06-03T16:21:28.570Z,5.22
2017-06-03T16:24:12.602Z,5.70
2017-06-03T16:26:48.275Z,6.10
2017-06-03T16:29:32.979Z,6.22
2017-06-03T16:35:01.489Z,6.18
2017-06-03T16:37:29.133Z,6.32
2017-06-03T16:39:58.723Z,6.20
2017-06-03T16:42:26.265Z,6.43
2017-06-03T16:44:53.868Z,7.12
2017-06-03T16:47:22.460Z,6.90
2017-06-03T16:49:50.053Z,5.90
2017-06-03T16:52:17.691Z,5.20
2017-06-03T16:54:53.158Z,5.97
2017-06-03T16:57:24.594Z,5.10
2017-06-03T17:00:08.461Z,5.30
2017-06-03T17:02:42.768Z,6.10
2017-06-03T17:05:27.278Z,6.00
2017-06-03T17:08:17.719Z,5.70
2017-06-03T17:11:01.959Z,5.70
2017-06-03T17:13:50.457Z,6.82
2017-06-03T17:16:37.681Z,7.37
2017-06-03T17:19:22.029Z,6.70
2017-06-03T17:22:00.092Z,6.07
2017-06-03T17:24:44.924Z,6.37
2017-06-03T17:27:29.373Z,5.80
2017-06-03T17:30:08.222Z,6.10
2017-06-03T17:32:41.998Z,5.32
2017-06-03T17:38:19.605Z,5.62
2017-06-03T17:43:57.418Z,14.30
2017-06-03T17:46:44.733Z,10.75
2017-06-03T17:49:47.893Z,10.65
2017-06-03T17:52:30.645Z,12.45
2017-06-03T17:55:06.487Z,11.50
2017-06-03T17:57:42.456Z,9.43
2017-06-03T18:00:30.464Z,8.75
2017-06-03T18:03:15.643Z,9.85
2017-06-03T18:08:51.509Z,9.35
2017-06-03T18:11:34.240Z,8.30
2017-06-03T18:22:59.969Z,8.82
2017-06-03T18:25:44.764Z,9.40
2017-06-03T18:28:28.812Z,8.68
2017-06-03T18:31:19.156Z,8.75
2017-06-03T18:40:10.956Z,9.05
2017-06-03T18:42:55.310Z,5.47
2017-06-03T18:45:39.208Z,5.03
2017-06-03T18:48:23.092Z,4.43
2017-06-03T18:51:07.121Z,4.97
2017-06-03T18:53:53.709Z,4.80
2017-06-03T18:56:40.413Z,5.68
2017-06-03T18:59:25.043Z,4.65
2017-06-03T19:02:09.384Z,5.22
2017-06-03T19:07:45.960Z,5.95
2017-06-03T19:10:30.717Z,4.90
2017-06-03T19:13:14.947Z,5.37
2017-06-03T19:15:59.218Z,5.18
2017-06-03T19:18:36.621Z,6.00
2017-06-03T19:21:21.420Z,6.37
2017-06-03T19:24:03.460Z,7.05
2017-06-03T19:26:40.664Z,6.07
2017-06-03T19:29:25.269Z,6.28
2017-06-03T19:32:09.688Z,5.53
2017-06-03T19:34:56.011Z,5.40
2017-06-03T19:37:40.336Z,6.30
2017-06-03T19:43:16.832Z,5.95
2017-06-03T19:46:00.768Z,7.97
2017-06-03T19:48:38.147Z,7.40
2017-06-03T19:51:22.618Z,7.20
2017-06-03T19:54:06.489Z,8.13
2017-06-03T19:56:50.400Z,6.70
2017-06-03T19:59:34.383Z,6.70
2017-06-03T20:02:16.272Z,6.97
2017-06-03T20:05:01.017Z,6.80
2017-06-03T20:07:47.332Z,6.00
2017-06-03T20:10:32.138Z,6.57
2017-06-03T20:13:19.563Z,5.75
2017-06-03T20:16:03.717Z,5.75
2017-06-03T20:18:45.728Z,5.65
2017-06-03T20:21:29.687Z,5.57
2017-06-03T20:24:07.184Z,5.20
2017-06-03T20:26:51.940Z,5.32
2017-06-03T20:29:38.273Z,5.18
2017-06-03T20:32:22.735Z,5.22
2017-06-03T20:35:06.888Z,5.68
2017-06-03T20:37:53.479Z,5.80
2017-06-03T20:40:37.596Z,6.03
2017-06-03T20:43:21.751Z,6.80
2017-06-03T20:46:06.487Z,8.15
2017-06-03T20:48:52.967Z,6.65
2017-06-03T20:51:37.383Z,5.32
2017-06-03T20:54:21.501Z,5.20
2017-06-03T20:57:07.857Z,6.75
2017-06-03T20:59:52.249Z,6.15
2017-06-03T21:02:36.227Z,6.18
2017-06-03T21:05:21.165Z,5.90
2017-06-03T21:08:05.104Z,6.15
2017-06-03T21:10:49.073Z,7.00
2017-06-03T21:13:32.992Z,7.20
2017-06-03T21:16:17.001Z,7.03
2017-06-03T21:18:59.009Z,7.57
2017-06-03T21:21:41.220Z,6.57
2017-06-03T21:24:27.957Z,7.10
2017-06-03T21:27:10.412Z,7.93
2017-06-03T21:29:54.447Z,8.55
2017-06-03T21:32:38.338Z,7.93
2017-06-03T21:35:20.285Z,7.20
2017-06-03T21:38:04.344Z,6.95
2017-06-03T21:40:50.690Z,7.53
2017-06-03T21:43:35.464Z,8.48
2017-06-03T21:46:17.233Z,7.25
2017-06-03T21:49:03.940Z,8.10
2017-06-03T21:51:44.328Z,7.32
2017-06-03T21:57:23.643Z,7.62
2017-06-03T22:00:08.281Z,7.00
2017-06-03T22:02:43.788Z,7.28
2017-06-03T22:08:23.378Z,7.63
2017-06-03T22:11:07.696Z,8.57
2017-06-03T22:13:51.638Z,6.87
2017-06-03T22:16:34.247Z,7.70
2017-06-03T22:19:16.131Z,7.50
2017-06-03T22:21:57.947Z,7.75
2017-06-03T22:24:36.090Z,8.05
2017-06-03T22:27:10.221Z,8.75
2017-06-03T22:29:41.472Z,8.48
2017-06-03T22:35:07.677Z,8.65
2017-06-03T22:37:41.600Z,9.30
2017-06-03T22:40:15.772Z,9.15
2017-06-03T22:42:49.808Z,9.77
2017-06-03T22:45:34.352Z,8.55
2017-06-03T22:48:08.827Z,9.07
2017-06-03T22:50:42.716Z,9.05
2017-06-03T22:56:11.153Z,9.55
2017-06-03T22:58:41.760Z,9.63
2017-06-03T23:01:15.532Z,10.32
2017-06-03T23:03:49.466Z,8.57
2017-06-03T23:06:23.536Z,8.63
2017-06-03T23:09:05.048Z,8.75
2017-06-03T23:11:38.329Z,8.13
2017-06-03T23:14:12.283Z,7.40
2017-06-03T23:16:46.268Z,6.68
2017-06-03T23:19:20.181Z,6.75
2017-06-03T23:22:11.004Z,6.53
2017-06-03T23:24:50.968Z,6.30
2017-06-03T23:30:19.415Z,6.72
2017-06-03T23:33:02.132Z,8.05
2017-06-03T23:35:35.600Z,6.72
2017-06-03T23:38:10.456Z,5.87
2017-06-03T23:40:57.522Z,6.30
2017-06-03T23:43:39.935Z,5.95
2017-06-03T23:46:13.288Z,5.97
2017-06-03T23:48:54.595Z,5.62
2017-06-03T23:51:35.360Z,5.87
2017-06-03T23:54:02.925Z,6.00
2017-06-03T23:56:30.496Z,4.90
2017-06-03T23:59:01.600Z,5.95
